createdAt,value
2024-01-05T00:09:32.080Z,99260.41
2024-01-05T00:19:36.620Z,99191.56
2024-01-05T00:29:39.658Z,99200.00
2024-01-05T00:39:43.814Z,99215.56
2024-01-05T00:49:47.102Z,99197.28
2024-01-05T00:59:52.055Z,99174.38
2024-01-05T01:09:54.931Z,99159.88
2024-01-05T01:19:59.574Z,99156.00
2024-01-05T01:30:02.646Z,99144.00
2024-01-05T01:40:09.868Z,99143.41
2024-01-05T01:50:12.811Z,99132.00
2024-01-05T02:00:17.507Z,99125.78
2024-01-05T02:10:22.191Z,99116.47
2024-01-05T02:20:26.340Z,99121.00
2024-01-05T02:30:30.607Z,99108.88
2024-01-05T02:40:33.777Z,99091.19
2024-01-05T02:50:37.873Z,99089.66
2024-01-05T03:00:40.909Z,99049.84
2024-01-05T03:10:45.139Z,99054.00
2024-01-05T03:20:48.284Z,99031.81
2024-01-05T03:30:52.966Z,99021.41
2024-01-05T03:40:55.878Z,99009.78
2024-01-05T03:51:00.053Z,98999.81
2024-01-05T04:01:04.024Z,98984.09
2024-01-05T04:11:08.204Z,98979.41
2024-01-05T04:21:12.200Z,98964.19
2024-01-05T04:31:16.523Z,98935.88
2024-01-05T04:41:20.074Z,98883.22
2024-01-05T04:51:24.374Z,98939.00
2024-01-05T05:01:27.316Z,98961.00
2024-01-05T05:11:31.808Z,98968.47
2024-01-05T05:21:35.384Z,98966.09
2024-01-05T05:31:39.514Z,98956.69
2024-01-05T05:41:42.522Z,98967.13
2024-01-05T05:51:47.486Z,98954.97
2024-01-05T06:01:51.006Z,98930.66
2024-01-05T06:11:55.372Z,98947.56
2024-01-05T06:22:00.808Z,98946.91
2024-01-05T06:32:05.480Z,98948.00
2024-01-05T06:42:09.314Z,98941.69
2024-01-05T06:52:13.707Z,98946.19
2024-01-05T07:02:16.456Z,98939.25
2024-01-05T07:12:20.673Z,98934.41
2024-01-05T07:22:23.961Z,98923.72
2024-01-05T07:32:28.071Z,98914.22
2024-01-05T07:42:32.082Z,98923.56
2024-01-05T07:52:36.448Z,98924.88
2024-01-05T08:02:39.199Z,98941.16
2024-01-05T08:12:43.769Z,98918.97
2024-01-05T08:22:46.589Z,98906.06
2024-01-05T08:32:55.704Z,98935.75
2024-01-05T08:42:59.244Z,98937.94
2024-01-05T08:53:03.431Z,98934.38
2024-01-05T09:03:06.422Z,98943.66
2024-01-05T09:13:10.607Z,98969.72
2024-01-05T09:23:14.220Z,98969.44
2024-01-05T09:33:20.693Z,98978.78
2024-01-05T09:43:24.071Z,99000.94
2024-01-05T09:53:48.210Z,98994.94
2024-01-05T10:04:11.167Z,98981.16
2024-01-05T10:14:35.689Z,98966.63
2024-01-05T10:25:15.407Z,98953.72
2024-01-05T10:35:39.471Z,98998.44
2024-01-05T10:46:03.456Z,99018.25
2024-01-05T10:56:30.064Z,99000.91
2024-01-05T11:06:53.907Z,99000.63
2024-01-05T11:17:49.606Z,98976.50
2024-01-05T11:28:33.824Z,98994.50
2024-01-05T11:38:58.342Z,98995.72
2024-01-05T11:49:38.017Z,98969.88
2024-01-05T12:00:03.730Z,99003.34
2024-01-05T12:10:28.350Z,99002.72
2024-01-05T12:20:55.113Z,99004.22
2024-01-05T12:31:19.221Z,99004.97
2024-01-05T12:41:46.892Z,98986.69
2024-01-05T12:52:10.099Z,98987.47
2024-01-05T13:02:40.135Z,98979.19
2024-01-05T13:13:03.282Z,98994.16
2024-01-05T13:23:29.325Z,99011.72
2024-01-05T13:33:52.263Z,98977.16
2024-01-05T13:44:17.424Z,99015.91
2024-01-05T13:54:40.318Z,99024.25
2024-01-05T14:05:10.597Z,99023.72
2024-01-05T14:15:33.360Z,99005.09
2024-01-05T14:25:58.240Z,99013.22
2024-01-05T14:36:21.105Z,99011.19
2024-01-05T14:46:45.317Z,99004.91
2024-01-05T14:57:08.077Z,99010.38
2024-01-05T15:07:32.217Z,98999.97
2024-01-05T15:17:55.301Z,98982.72
2024-01-05T15:28:20.042Z,99028.59
2024-01-05T15:38:43.223Z,99039.84
2024-01-05T15:49:07.719Z,99038.88
2024-01-05T15:59:33.867Z,99030.63
2024-01-05T16:09:57.916Z,99044.81
2024-01-05T16:20:20.943Z,99072.00
2024-01-05T16:30:45.137Z,99069.38
2024-01-05T16:41:09.771Z,99071.72
2024-01-05T16:51:33.985Z,99075.16
2024-01-05T17:01:56.755Z,99078.91
2024-01-05T17:12:20.837Z,99083.72
2024-01-05T17:22:43.540Z,99081.84
2024-01-05T17:33:07.891Z,99068.00
2024-01-05T17:43:30.718Z,99103.34
2024-01-05T17:54:00.983Z,99094.19
2024-01-05T18:04:26.415Z,99098.97
2024-01-05T18:14:32.153Z,99130.66
2024-01-05T18:24:35.049Z,99111.53
2024-01-05T18:34:45.872Z,99135.66
2024-01-05T18:44:59.531Z,99055.19
2024-01-05T18:55:11.213Z,99152.81
2024-01-05T19:05:15.157Z,99160.69
2024-01-05T19:15:19.296Z,99148.59
2024-01-05T19:25:22.081Z,99144.38
2024-01-05T19:35:26.205Z,99178.63
2024-01-05T19:45:29.384Z,99175.78
2024-01-05T19:55:34.465Z,99180.94
2024-01-05T20:05:37.412Z,99189.41
2024-01-05T20:15:41.842Z,99179.50
2024-01-05T20:25:57.366Z,99213.31
2024-01-05T20:36:01.671Z,99203.03
2024-01-05T20:46:04.584Z,99204.50
2024-01-05T20:56:08.898Z,99233.22
2024-01-05T21:06:11.908Z,99239.34
2024-01-05T21:16:16.755Z,99240.88
2024-01-05T21:26:19.558Z,99243.91
2024-01-05T21:36:23.998Z,99244.72
2024-01-05T21:46:27.380Z,99248.50
2024-01-05T21:56:31.748Z,99250.31
2024-01-05T22:06:35.136Z,99241.78
2024-01-05T22:16:40.925Z,99246.22
2024-01-05T22:26:44.415Z,99140.94
2024-01-05T22:36:51.005Z,99270.22
2024-01-05T22:46:54.159Z,99285.72
2024-01-05T22:56:58.769Z,99261.06
2024-01-05T23:07:01.986Z,99296.00
2024-01-05T23:17:09.493Z,99313.16
2024-01-05T23:27:12.836Z,99288.06
2024-01-05T23:37:18.094Z,99298.56
2024-01-05T23:47:21.053Z,99295.84
2024-01-05T23:57:29.290Z,99321.88
